sensor_id;sensor_type;location;lat;lon;timestamp;P1;durP1;ratioP1;P2;durP2;ratioP2
24585;SDS011;12743;52.262;6.172;2022-10-16T00:01:14;7.50;;;1.60;;
24585;SDS011;12743;52.262;6.172;2022-10-16T00:03:42;7.15;;;1.70;;
24585;SDS011;12743;52.262;6.172;2022-10-16T00:06:08;5.93;;;1.40;;
24585;SDS011;12743;52.262;6.172;2022-10-16T00:08:34;5.47;;;1.70;;
24585;SDS011;12743;52.262;6.172;2022-10-16T00:11:04;7.27;;;1.97;;
24585;SDS011;12743;52.262;6.172;2022-10-16T00:13:32;7.72;;;2.17;;
24585;SDS011;12743;52.262;6.172;2022-10-16T00:15:59;8.88;;;1.48;;
24585;SDS011;12743;52.262;6.172;2022-10-16T00:18:26;7.05;;;1.58;;
24585;SDS011;12743;52.262;6.172;2022-10-16T00:20:52;8.20;;;1.63;;
24585;SDS011;12743;52.262;6.172;2022-10-16T00:23:17;6.83;;;1.57;;
24585;SDS011;12743;52.262;6.172;2022-10-16T00:25:43;5.63;;;1.53;;
24585;SDS011;12743;52.262;6.172;2022-10-16T00:28:08;7.40;;;1.70;;
24585;SDS011;12743;52.262;6.172;2022-10-16T00:30:33;8.88;;;1.92;;
24585;SDS011;12743;52.262;6.172;2022-10-16T00:33:03;8.07;;;1.63;;
24585;SDS011;12743;52.262;6.172;2022-10-16T00:35:28;7.67;;;1.73;;
24585;SDS011;12743;52.262;6.172;2022-10-16T00:37:54;5.33;;;1.83;;
24585;SDS011;12743;52.262;6.172;2022-10-16T00:40:19;6.67;;;1.73;;
24585;SDS011;12743;52.262;6.172;2022-10-16T00:42:44;6.07;;;1.80;;
24585;SDS011;12743;52.262;6.172;2022-10-16T00:45:10;6.38;;;2.20;;
24585;SDS011;12743;52.262;6.172;2022-10-16T00:47:39;5.93;;;2.40;;
24585;SDS011;12743;52.262;6.172;2022-10-16T00:50:09;6.88;;;2.03;;
24585;SDS011;12743;52.262;6.172;2022-10-16T00:52:39;6.00;;;2.05;;
24585;SDS011;12743;52.262;6.172;2022-10-16T00:55:09;6.87;;;2.67;;
24585;SDS011;12743;52.262;6.172;2022-10-16T00:57:35;14.90;;;2.88;;
24585;SDS011;12743;52.262;6.172;2022-10-16T01:00:03;12.73;;;2.85;;
24585;SDS011;12743;52.262;6.172;2022-10-16T01:02:30;9.32;;;2.60;;
24585;SDS011;12743;52.262;6.172;2022-10-16T01:04:56;8.20;;;3.07;;
24585;SDS011;12743;52.262;6.172;2022-10-16T01:10:32;6.68;;;2.25;;
24585;SDS011;12743;52.262;6.172;2022-10-16T01:13:04;8.88;;;2.58;;
24585;SDS011;12743;52.262;6.172;2022-10-16T01:18:17;7.53;;;2.70;;
24585;SDS011;12743;52.262;6.172;2022-10-16T01:25:56;10.52;;;2.70;;
24585;SDS011;12743;52.262;6.172;2022-10-16T01:28:24;11.35;;;2.85;;
24585;SDS011;12743;52.262;6.172;2022-10-16T01:30:55;6.75;;;2.60;;
24585;SDS011;12743;52.262;6.172;2022-10-16T01:33:24;7.27;;;2.30;;
24585;SDS011;12743;52.262;6.172;2022-10-16T01:35:56;9.25;;;2.65;;
24585;SDS011;12743;52.262;6.172;2022-10-16T01:38:28;8.43;;;2.70;;
24585;SDS011;12743;52.262;6.172;2022-10-16T01:41:00;6.63;;;2.63;;
24585;SDS011;12743;52.262;6.172;2022-10-16T01:43:33;10.77;;;3.47;;
24585;SDS011;12743;52.262;6.172;2022-10-16T01:46:06;8.10;;;2.77;;
24585;SDS011;12743;52.262;6.172;2022-10-16T01:48:34;8.02;;;3.13;;
24585;SDS011;12743;52.262;6.172;2022-10-16T01:51:05;8.95;;;2.63;;
24585;SDS011;12743;52.262;6.172;2022-10-16T01:53:33;6.75;;;2.88;;
24585;SDS011;12743;52.262;6.172;2022-10-16T01:55:58;7.73;;;2.90;;
24585;SDS011;12743;52.262;6.172;2022-10-16T01:58:27;6.93;;;2.92;;
24585;SDS011;12743;52.262;6.172;2022-10-16T02:00:55;6.50;;;2.70;;
24585;SDS011;12743;52.262;6.172;2022-10-16T02:03:22;8.55;;;2.78;;
24585;SDS011;12743;52.262;6.172;2022-10-16T02:05:54;6.07;;;2.70;;
24585;SDS011;12743;52.262;6.172;2022-10-16T02:08:22;9.85;;;3.25;;
24585;SDS011;12743;52.262;6.172;2022-10-16T02:10:51;7.82;;;3.22;;
24585;SDS011;12743;52.262;6.172;2022-10-16T02:13:17;11.37;;;3.10;;
24585;SDS011;12743;52.262;6.172;2022-10-16T02:15:47;6.47;;;2.65;;
24585;SDS011;12743;52.262;6.172;2022-10-16T02:18:12;7.75;;;2.60;;
24585;SDS011;12743;52.262;6.172;2022-10-16T02:21:01;6.30;;;2.80;;
24585;SDS011;12743;52.262;6.172;2022-10-16T02:26:41;7.47;;;2.85;;
24585;SDS011;12743;52.262;6.172;2022-10-16T02:29:17;5.90;;;2.35;;
24585;SDS011;12743;52.262;6.172;2022-10-16T02:31:50;6.97;;;2.70;;
24585;SDS011;12743;52.262;6.172;2022-10-16T02:34:20;6.40;;;2.40;;
24585;SDS011;12743;52.262;6.172;2022-10-16T02:36:46;6.73;;;2.67;;
24585;SDS011;12743;52.262;6.172;2022-10-16T02:39:13;7.88;;;2.75;;
24585;SDS011;12743;52.262;6.172;2022-10-16T02:41:40;9.50;;;2.90;;
24585;SDS011;12743;52.262;6.172;2022-10-16T02:44:05;6.53;;;2.53;;
24585;SDS011;12743;52.262;6.172;2022-10-16T02:46:31;13.37;;;2.60;;
24585;SDS011;12743;52.262;6.172;2022-10-16T02:48:56;5.03;;;2.40;;
24585;SDS011;12743;52.262;6.172;2022-10-16T02:51:21;6.70;;;2.80;;
24585;SDS011;12743;52.262;6.172;2022-10-16T02:53:47;7.20;;;2.07;;
24585;SDS011;12743;52.262;6.172;2022-10-16T02:56:12;6.10;;;2.50;;
24585;SDS011;12743;52.262;6.172;2022-10-16T02:58:37;9.23;;;3.03;;
24585;SDS011;12743;52.262;6.172;2022-10-16T03:01:03;7.00;;;2.77;;
24585;SDS011;12743;52.262;6.172;2022-10-16T03:03:28;6.13;;;2.63;;
24585;SDS011;12743;52.262;6.172;2022-10-16T03:05:53;7.70;;;3.10;;
24585;SDS011;12743;52.262;6.172;2022-10-16T03:08:19;7.28;;;2.20;;
24585;SDS011;12743;52.262;6.172;2022-10-16T03:10:48;9.30;;;2.53;;
24585;SDS011;12743;52.262;6.172;2022-10-16T03:13:14;6.77;;;2.27;;
24585;SDS011;12743;52.262;6.172;2022-10-16T03:15:39;8.10;;;2.53;;
24585;SDS011;12743;52.262;6.172;2022-10-16T03:18:05;7.15;;;3.05;;
24585;SDS011;12743;52.262;6.172;2022-10-16T03:20:30;6.70;;;2.50;;
24585;SDS011;12743;52.262;6.172;2022-10-16T03:22:55;6.43;;;2.40;;
24585;SDS011;12743;52.262;6.172;2022-10-16T03:25:21;5.47;;;2.17;;
24585;SDS011;12743;52.262;6.172;2022-10-16T03:27:46;8.73;;;2.57;;
24585;SDS011;12743;52.262;6.172;2022-10-16T03:30:12;7.53;;;2.30;;
24585;SDS011;12743;52.262;6.172;2022-10-16T03:32:37;8.30;;;2.60;;
24585;SDS011;12743;52.262;6.172;2022-10-16T03:35:03;6.80;;;2.33;;
24585;SDS011;12743;52.262;6.172;2022-10-16T03:37:28;5.63;;;3.03;;
24585;SDS011;12743;52.262;6.172;2022-10-16T03:39:53;8.20;;;2.50;;
24585;SDS011;12743;52.262;6.172;2022-10-16T03:42:19;6.17;;;2.37;;
24585;SDS011;12743;52.262;6.172;2022-10-16T03:44:45;6.18;;;2.05;;
24585;SDS011;12743;52.262;6.172;2022-10-16T03:47:10;8.10;;;2.80;;
24585;SDS011;12743;52.262;6.172;2022-10-16T03:49:35;7.37;;;2.17;;
24585;SDS011;12743;52.262;6.172;2022-10-16T03:52:01;6.33;;;2.20;;
24585;SDS011;12743;52.262;6.172;2022-10-16T03:54:26;6.67;;;2.00;;
24585;SDS011;12743;52.262;6.172;2022-10-16T03:56:51;6.33;;;2.40;;
24585;SDS011;12743;52.262;6.172;2022-10-16T03:59:17;7.25;;;2.35;;
24585;SDS011;12743;52.262;6.172;2022-10-16T04:01:42;5.80;;;2.33;;
24585;SDS011;12743;52.262;6.172;2022-10-16T04:04:08;6.33;;;1.80;;
24585;SDS011;12743;52.262;6.172;2022-10-16T04:06:33;6.03;;;2.20;;
24585;SDS011;12743;52.262;6.172;2022-10-16T04:08:59;6.40;;;2.37;;
24585;SDS011;12743;52.262;6.172;2022-10-16T04:11:24;6.55;;;2.30;;
24585;SDS011;12743;52.262;6.172;2022-10-16T04:13:49;6.30;;;2.43;;
24585;SDS011;12743;52.262;6.172;2022-10-16T04:16:15;4.70;;;1.90;;
24585;SDS011;12743;52.262;6.172;2022-10-16T04:18:40;5.97;;;2.10;;
24585;SDS011;12743;52.262;6.172;2022-10-16T04:21:06;5.97;;;1.80;;
24585;SDS011;12743;52.262;6.172;2022-10-16T04:23:31;5.13;;;2.10;;
24585;SDS011;12743;52.262;6.172;2022-10-16T04:25:57;4.73;;;1.83;;
24585;SDS011;12743;52.262;6.172;2022-10-16T04:28:23;6.05;;;1.98;;
24585;SDS011;12743;52.262;6.172;2022-10-16T04:30:48;5.33;;;1.97;;
24585;SDS011;12743;52.262;6.172;2022-10-16T04:33:13;4.70;;;1.90;;
24585;SDS011;12743;52.262;6.172;2022-10-16T04:35:39;5.63;;;1.90;;
24585;SDS011;12743;52.262;6.172;2022-10-16T04:38:04;4.95;;;1.70;;
24585;SDS011;12743;52.262;6.172;2022-10-16T04:40:30;5.90;;;2.33;;
24585;SDS011;12743;52.262;6.172;2022-10-16T04:42:58;3.92;;;1.55;;
24585;SDS011;12743;52.262;6.172;2022-10-16T04:45:24;5.50;;;1.77;;
24585;SDS011;12743;52.262;6.172;2022-10-16T04:47:49;5.82;;;2.00;;
24585;SDS011;12743;52.262;6.172;2022-10-16T04:50:15;5.23;;;1.73;;
24585;SDS011;12743;52.262;6.172;2022-10-16T04:52:59;6.88;;;2.10;;
24585;SDS011;12743;52.262;6.172;2022-10-16T04:55:25;4.80;;;2.10;;
24585;SDS011;12743;52.262;6.172;2022-10-16T04:57:50;4.47;;;1.33;;
24585;SDS011;12743;52.262;6.172;2022-10-16T05:00:15;5.37;;;1.50;;
24585;SDS011;12743;52.262;6.172;2022-10-16T05:02:41;4.80;;;1.60;;
24585;SDS011;12743;52.262;6.172;2022-10-16T05:05:06;5.73;;;1.80;;
24585;SDS011;12743;52.262;6.172;2022-10-16T05:07:32;5.68;;;1.55;;
24585;SDS011;12743;52.262;6.172;2022-10-16T05:09:57;5.50;;;1.47;;
24585;SDS011;12743;52.262;6.172;2022-10-16T05:12:22;7.67;;;1.93;;
24585;SDS011;12743;52.262;6.172;2022-10-16T05:14:48;4.17;;;1.20;;
24585;SDS011;12743;52.262;6.172;2022-10-16T05:17:13;6.47;;;1.85;;
24585;SDS011;12743;52.262;6.172;2022-10-16T05:19:39;5.90;;;1.53;;
24585;SDS011;12743;52.262;6.172;2022-10-16T05:22:04;4.47;;;1.37;;
24585;SDS011;12743;52.262;6.172;2022-10-16T05:24:30;6.60;;;1.50;;
24585;SDS011;12743;52.262;6.172;2022-10-16T05:26:55;4.33;;;1.30;;
24585;SDS011;12743;52.262;6.172;2022-10-16T05:29:21;4.57;;;1.58;;
24585;SDS011;12743;52.262;6.172;2022-10-16T05:31:46;6.10;;;1.63;;
24585;SDS011;12743;52.262;6.172;2022-10-16T05:34:11;7.50;;;1.90;;
24585;SDS011;12743;52.262;6.172;2022-10-16T05:36:37;4.17;;;1.40;;
24585;SDS011;12743;52.262;6.172;2022-10-16T05:39:02;4.87;;;1.50;;
24585;SDS011;12743;52.262;6.172;2022-10-16T05:41:28;4.83;;;1.23;;
24585;SDS011;12743;52.262;6.172;2022-10-16T05:43:53;6.33;;;1.57;;
24585;SDS011;12743;52.262;6.172;2022-10-16T05:46:18;4.17;;;1.30;;
24585;SDS011;12743;52.262;6.172;2022-10-16T05:48:44;9.07;;;1.60;;
24585;SDS011;12743;52.262;6.172;2022-10-16T05:51:11;4.93;;;1.17;;
24585;SDS011;12743;52.262;6.172;2022-10-16T05:53:38;11.90;;;1.95;;
24585;SDS011;12743;52.262;6.172;2022-10-16T05:56:05;6.03;;;1.48;;
24585;SDS011;12743;52.262;6.172;2022-10-16T05:58:32;5.63;;;1.27;;
24585;SDS011;12743;52.262;6.172;2022-10-16T06:01:01;5.18;;;1.40;;
24585;SDS011;12743;52.262;6.172;2022-10-16T06:03:28;5.65;;;1.40;;
24585;SDS011;12743;52.262;6.172;2022-10-16T06:05:54;5.37;;;1.60;;
24585;SDS011;12743;52.262;6.172;2022-10-16T06:08:20;3.33;;;1.27;;
24585;SDS011;12743;52.262;6.172;2022-10-16T06:10:47;4.63;;;1.10;;
24585;SDS011;12743;52.262;6.172;2022-10-16T06:13:13;5.38;;;1.23;;
24585;SDS011;12743;52.262;6.172;2022-10-16T06:15:40;5.05;;;1.70;;
24585;SDS011;12743;52.262;6.172;2022-10-16T06:18:10;7.40;;;1.55;;
24585;SDS011;12743;52.262;6.172;2022-10-16T06:20:35;3.40;;;1.02;;
24585;SDS011;12743;52.262;6.172;2022-10-16T06:23:02;5.13;;;1.10;;
24585;SDS011;12743;52.262;6.172;2022-10-16T06:25:29;6.93;;;1.20;;
24585;SDS011;12743;52.262;6.172;2022-10-16T06:27:55;4.82;;;1.50;;
24585;SDS011;12743;52.262;6.172;2022-10-16T06:30:20;6.13;;;1.30;;
24585;SDS011;12743;52.262;6.172;2022-10-16T06:32:46;4.13;;;1.40;;
24585;SDS011;12743;52.262;6.172;2022-10-16T06:35:11;5.17;;;1.30;;
24585;SDS011;12743;52.262;6.172;2022-10-16T06:37:36;6.38;;;1.45;;
24585;SDS011;12743;52.262;6.172;2022-10-16T06:40:02;5.17;;;1.30;;
24585;SDS011;12743;52.262;6.172;2022-10-16T06:42:29;5.15;;;1.20;;
24585;SDS011;12743;52.262;6.172;2022-10-16T06:44:55;9.07;;;1.43;;
24585;SDS011;12743;52.262;6.172;2022-10-16T06:47:21;5.88;;;1.50;;
24585;SDS011;12743;52.262;6.172;2022-10-16T06:49:46;7.80;;;1.40;;
24585;SDS011;12743;52.262;6.172;2022-10-16T06:52:11;8.93;;;1.20;;
24585;SDS011;12743;52.262;6.172;2022-10-16T06:54:37;6.37;;;1.50;;
24585;SDS011;12743;52.262;6.172;2022-10-16T06:57:02;4.67;;;1.67;;
24585;SDS011;12743;52.262;6.172;2022-10-16T06:59:27;4.97;;;1.50;;
24585;SDS011;12743;52.262;6.172;2022-10-16T07:01:53;5.00;;;1.60;;
24585;SDS011;12743;52.262;6.172;2022-10-16T07:04:18;8.97;;;1.40;;
24585;SDS011;12743;52.262;6.172;2022-10-16T07:06:44;3.97;;;1.53;;
24585;SDS011;12743;52.262;6.172;2022-10-16T07:09:09;7.00;;;1.77;;
24585;SDS011;12743;52.262;6.172;2022-10-16T07:11:36;3.40;;;1.20;;
24585;SDS011;12743;52.262;6.172;2022-10-16T07:14:03;4.50;;;1.20;;
24585;SDS011;12743;52.262;6.172;2022-10-16T07:16:29;7.28;;;2.30;;
24585;SDS011;12743;52.262;6.172;2022-10-16T07:18:58;6.95;;;1.40;;
24585;SDS011;12743;52.262;6.172;2022-10-16T07:21:29;3.80;;;1.40;;
24585;SDS011;12743;52.262;6.172;2022-10-16T07:23:57;5.80;;;1.58;;
24585;SDS011;12743;52.262;6.172;2022-10-16T07:26:24;4.60;;;1.40;;
24585;SDS011;12743;52.262;6.172;2022-10-16T07:28:50;5.05;;;1.60;;
24585;SDS011;12743;52.262;6.172;2022-10-16T07:31:17;5.17;;;1.60;;
24585;SDS011;12743;52.262;6.172;2022-10-16T07:33:44;6.72;;;1.58;;
24585;SDS011;12743;52.262;6.172;2022-10-16T07:36:13;5.55;;;1.60;;
24585;SDS011;12743;52.262;6.172;2022-10-16T07:38:39;7.70;;;1.40;;
24585;SDS011;12743;52.262;6.172;2022-10-16T07:41:05;7.80;;;2.07;;
24585;SDS011;12743;52.262;6.172;2022-10-16T07:43:32;7.38;;;1.60;;
24585;SDS011;12743;52.262;6.172;2022-10-16T07:45:58;7.82;;;1.70;;
24585;SDS011;12743;52.262;6.172;2022-10-16T07:48:23;6.83;;;1.40;;
24585;SDS011;12743;52.262;6.172;2022-10-16T07:50:52;3.22;;;1.20;;
24585;SDS011;12743;52.262;6.172;2022-10-16T07:53:17;6.93;;;1.67;;
24585;SDS011;12743;52.262;6.172;2022-10-16T07:55:42;5.87;;;1.30;;
24585;SDS011;12743;52.262;6.172;2022-10-16T07:58:08;5.40;;;1.20;;
24585;SDS011;12743;52.262;6.172;2022-10-16T08:00:33;6.03;;;1.50;;
24585;SDS011;12743;52.262;6.172;2022-10-16T08:03:00;12.48;;;2.28;;
24585;SDS011;12743;52.262;6.172;2022-10-16T08:05:26;5.60;;;1.70;;
24585;SDS011;12743;52.262;6.172;2022-10-16T08:07:53;4.05;;;1.10;;
24585;SDS011;12743;52.262;6.172;2022-10-16T08:10:21;6.90;;;1.55;;
24585;SDS011;12743;52.262;6.172;2022-10-16T08:12:48;8.53;;;1.90;;
24585;SDS011;12743;52.262;6.172;2022-10-16T08:15:14;5.43;;;1.55;;
24585;SDS011;12743;52.262;6.172;2022-10-16T08:17:39;5.03;;;1.37;;
24585;SDS011;12743;52.262;6.172;2022-10-16T08:20:04;7.70;;;1.50;;
24585;SDS011;12743;52.262;6.172;2022-10-16T08:22:30;4.55;;;1.70;;
24585;SDS011;12743;52.262;6.172;2022-10-16T08:24:56;7.87;;;1.27;;
24585;SDS011;12743;52.262;6.172;2022-10-16T08:27:21;4.43;;;1.47;;
24585;SDS011;12743;52.262;6.172;2022-10-16T08:29:48;4.93;;;1.17;;
24585;SDS011;12743;52.262;6.172;2022-10-16T08:32:13;5.68;;;2.00;;
24585;SDS011;12743;52.262;6.172;2022-10-16T08:34:39;4.63;;;1.50;;
24585;SDS011;12743;52.262;6.172;2022-10-16T08:37:04;4.30;;;1.43;;
24585;SDS011;12743;52.262;6.172;2022-10-16T08:39:30;6.87;;;1.50;;
24585;SDS011;12743;52.262;6.172;2022-10-16T08:45:12;7.10;;;1.50;;
24585;SDS011;12743;52.262;6.172;2022-10-16T08:50:28;7.20;;;1.80;;
24585;SDS011;12743;52.262;6.172;2022-10-16T08:52:56;4.80;;;1.52;;
24585;SDS011;12743;52.262;6.172;2022-10-16T08:58:18;4.40;;;1.30;;
24585;SDS011;12743;52.262;6.172;2022-10-16T09:00:47;6.28;;;1.77;;
24585;SDS011;12743;52.262;6.172;2022-10-16T09:03:23;10.60;;;2.20;;
24585;SDS011;12743;52.262;6.172;2022-10-16T09:11:10;5.60;;;1.52;;
24585;SDS011;12743;52.262;6.172;2022-10-16T09:16:46;5.23;;;1.40;;
24585;SDS011;12743;52.262;6.172;2022-10-16T09:19:20;6.18;;;1.30;;
24585;SDS011;12743;52.262;6.172;2022-10-16T09:21:52;6.30;;;1.77;;
24585;SDS011;12743;52.262;6.172;2022-10-16T09:24:22;10.52;;;2.05;;
24585;SDS011;12743;52.262;6.172;2022-10-16T09:26:50;6.93;;;1.77;;
24585;SDS011;12743;52.262;6.172;2022-10-16T09:29:16;5.10;;;1.00;;
24585;SDS011;12743;52.262;6.172;2022-10-16T09:31:46;9.70;;;1.40;;
24585;SDS011;12743;52.262;6.172;2022-10-16T09:36:50;9.50;;;1.40;;
24585;SDS011;12743;52.262;6.172;2022-10-16T09:39:16;3.88;;;1.05;;
24585;SDS011;12743;52.262;6.172;2022-10-16T09:41:43;8.83;;;1.30;;
24585;SDS011;12743;52.262;6.172;2022-10-16T09:47:05;6.85;;;1.20;;
24585;SDS011;12743;52.262;6.172;2022-10-16T09:49:39;7.53;;;1.02;;
24585;SDS011;12743;52.262;6.172;2022-10-16T09:52:16;8.98;;;1.33;;
24585;SDS011;12743;52.262;6.172;2022-10-16T09:54:55;9.30;;;1.20;;
24585;SDS011;12743;52.262;6.172;2022-10-16T09:57:25;10.07;;;1.33;;
24585;SDS011;12743;52.262;6.172;2022-10-16T09:59:52;5.57;;;1.10;;
24585;SDS011;12743;52.262;6.172;2022-10-16T10:02:40;7.40;;;1.00;;
24585;SDS011;12743;52.262;6.172;2022-10-16T10:05:05;8.93;;;1.23;;
24585;SDS011;12743;52.262;6.172;2022-10-16T10:07:43;9.87;;;1.07;;
24585;SDS011;12743;52.262;6.172;2022-10-16T10:10:32;6.93;;;1.20;;
24585;SDS011;12743;52.262;6.172;2022-10-16T10:12:57;7.88;;;1.15;;
24585;SDS011;12743;52.262;6.172;2022-10-16T10:15:24;8.55;;;1.67;;
24585;SDS011;12743;52.262;6.172;2022-10-16T10:17:55;10.93;;;1.08;;
24585;SDS011;12743;52.262;6.172;2022-10-16T10:20:26;11.07;;;1.40;;
24585;SDS011;12743;52.262;6.172;2022-10-16T10:23:00;12.00;;;1.30;;
24585;SDS011;12743;52.262;6.172;2022-10-16T10:25:30;10.15;;;1.10;;
24585;SDS011;12743;52.262;6.172;2022-10-16T10:31:17;7.32;;;1.02;;
24585;SDS011;12743;52.262;6.172;2022-10-16T10:36:34;10.93;;;1.20;;
24585;SDS011;12743;52.262;6.172;2022-10-16T10:39:12;9.23;;;1.02;;
24585;SDS011;12743;52.262;6.172;2022-10-16T10:47:27;9.57;;;1.07;;
24585;SDS011;12743;52.262;6.172;2022-10-16T10:53:00;11.45;;;1.52;;
24585;SDS011;12743;52.262;6.172;2022-10-16T10:55:40;8.73;;;0.93;;
24585;SDS011;12743;52.262;6.172;2022-10-16T11:06:24;11.18;;;1.13;;
24585;SDS011;12743;52.262;6.172;2022-10-16T11:08:54;7.68;;;0.88;;
24585;SDS011;12743;52.262;6.172;2022-10-16T11:11:29;13.55;;;1.73;;
24585;SDS011;12743;52.262;6.172;2022-10-16T11:14:03;9.63;;;1.23;;
24585;SDS011;12743;52.262;6.172;2022-10-16T11:16:39;7.47;;;0.98;;
24585;SDS011;12743;52.262;6.172;2022-10-16T11:19:11;8.25;;;1.00;;
24585;SDS011;12743;52.262;6.172;2022-10-16T11:21:44;8.55;;;1.17;;
24585;SDS011;12743;52.262;6.172;2022-10-16T11:24:18;12.23;;;0.90;;
24585;SDS011;12743;52.262;6.172;2022-10-16T11:26:48;9.43;;;1.03;;
24585;SDS011;12743;52.262;6.172;2022-10-16T11:29:17;10.07;;;1.00;;
24585;SDS011;12743;52.262;6.172;2022-10-16T11:31:49;5.78;;;0.65;;
24585;SDS011;12743;52.262;6.172;2022-10-16T11:34:28;5.85;;;0.90;;
24585;SDS011;12743;52.262;6.172;2022-10-16T11:39:32;7.93;;;1.10;;
24585;SDS011;12743;52.262;6.172;2022-10-16T11:42:03;9.70;;;1.42;;
24585;SDS011;12743;52.262;6.172;2022-10-16T11:44:41;10.80;;;1.05;;
24585;SDS011;12743;52.262;6.172;2022-10-16T11:53:07;9.05;;;1.10;;
24585;SDS011;12743;52.262;6.172;2022-10-16T11:55:54;11.30;;;1.75;;
24585;SDS011;12743;52.262;6.172;2022-10-16T11:58:34;9.03;;;1.10;;
24585;SDS011;12743;52.262;6.172;2022-10-16T12:01:28;9.18;;;0.85;;
24585;SDS011;12743;52.262;6.172;2022-10-16T12:04:03;5.97;;;0.77;;
24585;SDS011;12743;52.262;6.172;2022-10-16T12:09:40;6.88;;;0.85;;
24585;SDS011;12743;52.262;6.172;2022-10-16T12:12:37;8.68;;;1.10;;
24585;SDS011;12743;52.262;6.172;2022-10-16T12:18:07;7.07;;;1.02;;
24585;SDS011;12743;52.262;6.172;2022-10-16T12:20:53;7.33;;;0.93;;
24585;SDS011;12743;52.262;6.172;2022-10-16T12:23:23;9.00;;;0.90;;
24585;SDS011;12743;52.262;6.172;2022-10-16T12:25:54;10.57;;;1.13;;
24585;SDS011;12743;52.262;6.172;2022-10-16T12:28:21;10.18;;;1.05;;
24585;SDS011;12743;52.262;6.172;2022-10-16T12:35:50;8.52;;;1.20;;
24585;SDS011;12743;52.262;6.172;2022-10-16T12:38:19;9.05;;;1.40;;
24585;SDS011;12743;52.262;6.172;2022-10-16T12:40:59;8.27;;;1.10;;
24585;SDS011;12743;52.262;6.172;2022-10-16T12:48:33;6.93;;;0.93;;
24585;SDS011;12743;52.262;6.172;2022-10-16T12:54:18;6.78;;;0.93;;
24585;SDS011;12743;52.262;6.172;2022-10-16T13:02:44;5.53;;;1.10;;
24585;SDS011;12743;52.262;6.172;2022-10-16T13:19:50;5.50;;;0.98;;
24585;SDS011;12743;52.262;6.172;2022-10-16T13:30:42;7.63;;;0.93;;
24585;SDS011;12743;52.262;6.172;2022-10-16T13:35:56;6.63;;;1.00;;
24585;SDS011;12743;52.262;6.172;2022-10-16T13:38:23;9.32;;;1.33;;
24585;SDS011;12743;52.262;6.172;2022-10-16T13:40:53;13.63;;;1.00;;
24585;SDS011;12743;52.262;6.172;2022-10-16T13:43:23;9.27;;;1.33;;
24585;SDS011;12743;52.262;6.172;2022-10-16T13:45:53;8.00;;;1.00;;
24585;SDS011;12743;52.262;6.172;2022-10-16T13:48:23;9.87;;;0.80;;
24585;SDS011;12743;52.262;6.172;2022-10-16T13:53:40;9.75;;;0.70;;
24585;SDS011;12743;52.262;6.172;2022-10-16T13:56:09;6.28;;;0.60;;
24585;SDS011;12743;52.262;6.172;2022-10-16T13:58:36;7.25;;;0.70;;
24585;SDS011;12743;52.262;6.172;2022-10-16T14:01:03;11.03;;;0.80;;
24585;SDS011;12743;52.262;6.172;2022-10-16T14:03:49;7.22;;;1.40;;
24585;SDS011;12743;52.262;6.172;2022-10-16T14:06:16;8.30;;;1.30;;
24585;SDS011;12743;52.262;6.172;2022-10-16T14:08:44;5.72;;;0.70;;
24585;SDS011;12743;52.262;6.172;2022-10-16T14:11:19;12.70;;;1.00;;
24585;SDS011;12743;52.262;6.172;2022-10-16T14:13:47;7.38;;;0.70;;
24585;SDS011;12743;52.262;6.172;2022-10-16T14:16:17;5.93;;;0.77;;
24585;SDS011;12743;52.262;6.172;2022-10-16T14:18:56;9.30;;;1.10;;
24585;SDS011;12743;52.262;6.172;2022-10-16T14:21:24;6.78;;;0.98;;
24585;SDS011;12743;52.262;6.172;2022-10-16T14:23:51;8.73;;;1.08;;
24585;SDS011;12743;52.262;6.172;2022-10-16T14:26:18;9.23;;;0.90;;
24585;SDS011;12743;52.262;6.172;2022-10-16T14:28:46;7.80;;;0.93;;
24585;SDS011;12743;52.262;6.172;2022-10-16T14:31:31;8.93;;;0.75;;
24585;SDS011;12743;52.262;6.172;2022-10-16T14:33:58;7.03;;;0.63;;
24585;SDS011;12743;52.262;6.172;2022-10-16T14:36:24;6.90;;;0.93;;
24585;SDS011;12743;52.262;6.172;2022-10-16T14:39:02;9.18;;;0.70;;
24585;SDS011;12743;52.262;6.172;2022-10-16T14:41:40;6.07;;;0.90;;
24585;SDS011;12743;52.262;6.172;2022-10-16T14:44:11;7.43;;;0.70;;
24585;SDS011;12743;52.262;6.172;2022-10-16T14:46:38;8.82;;;0.77;;
24585;SDS011;12743;52.262;6.172;2022-10-16T14:51:34;11.82;;;1.30;;
24585;SDS011;12743;52.262;6.172;2022-10-16T14:54:00;7.23;;;0.93;;
24585;SDS011;12743;52.262;6.172;2022-10-16T14:56:30;6.93;;;0.82;;
24585;SDS011;12743;52.262;6.172;2022-10-16T14:59:07;8.68;;;0.93;;
24585;SDS011;12743;52.262;6.172;2022-10-16T15:01:38;6.32;;;0.90;;
24585;SDS011;12743;52.262;6.172;2022-10-16T15:04:03;7.97;;;0.90;;
24585;SDS011;12743;52.262;6.172;2022-10-16T15:06:29;8.83;;;1.27;;
24585;SDS011;12743;52.262;6.172;2022-10-16T15:08:54;6.23;;;0.80;;
24585;SDS011;12743;52.262;6.172;2022-10-16T15:11:19;7.90;;;0.90;;
24585;SDS011;12743;52.262;6.172;2022-10-16T15:13:45;7.43;;;1.08;;
24585;SDS011;12743;52.262;6.172;2022-10-16T15:16:12;10.97;;;1.60;;
24585;SDS011;12743;52.262;6.172;2022-10-16T15:18:39;9.65;;;1.10;;
24585;SDS011;12743;52.262;6.172;2022-10-16T15:21:04;7.73;;;1.00;;
24585;SDS011;12743;52.262;6.172;2022-10-16T15:23:30;7.95;;;0.93;;
24585;SDS011;12743;52.262;6.172;2022-10-16T15:25:55;10.50;;;1.37;;
24585;SDS011;12743;52.262;6.172;2022-10-16T15:28:22;9.48;;;1.30;;
24585;SDS011;12743;52.262;6.172;2022-10-16T15:30:49;7.38;;;1.20;;
24585;SDS011;12743;52.262;6.172;2022-10-16T15:33:20;10.37;;;1.70;;
24585;SDS011;12743;52.262;6.172;2022-10-16T15:35:48;12.38;;;1.70;;
24585;SDS011;12743;52.262;6.172;2022-10-16T15:38:15;7.45;;;1.20;;
24585;SDS011;12743;52.262;6.172;2022-10-16T15:40:42;8.73;;;1.10;;
24585;SDS011;12743;52.262;6.172;2022-10-16T15:43:08;11.27;;;1.57;;
24585;SDS011;12743;52.262;6.172;2022-10-16T15:45:34;9.10;;;0.80;;
24585;SDS011;12743;52.262;6.172;2022-10-16T15:47:59;7.33;;;1.10;;
24585;SDS011;12743;52.262;6.172;2022-10-16T15:50:25;6.63;;;1.00;;
24585;SDS011;12743;52.262;6.172;2022-10-16T15:52:51;6.43;;;1.30;;
24585;SDS011;12743;52.262;6.172;2022-10-16T15:55:16;11.73;;;1.83;;
24585;SDS011;12743;52.262;6.172;2022-10-16T15:57:43;7.93;;;0.80;;
24585;SDS011;12743;52.262;6.172;2022-10-16T16:00:17;7.80;;;1.05;;
24585;SDS011;12743;52.262;6.172;2022-10-16T16:02:49;5.20;;;1.00;;
24585;SDS011;12743;52.262;6.172;2022-10-16T16:05:16;13.73;;;1.83;;
24585;SDS011;12743;52.262;6.172;2022-10-16T16:07:42;8.32;;;1.98;;
24585;SDS011;12743;52.262;6.172;2022-10-16T16:10:08;10.43;;;1.53;;
24585;SDS011;12743;52.262;6.172;2022-10-16T16:12:36;12.80;;;1.55;;
24585;SDS011;12743;52.262;6.172;2022-10-16T16:15:02;10.17;;;1.70;;
24585;SDS011;12743;52.262;6.172;2022-10-16T16:17:32;10.63;;;1.90;;
24585;SDS011;12743;52.262;6.172;2022-10-16T16:19:58;14.48;;;5.88;;
24585;SDS011;12743;52.262;6.172;2022-10-16T16:22:24;9.63;;;3.90;;
24585;SDS011;12743;52.262;6.172;2022-10-16T16:24:49;15.43;;;4.10;;
24585;SDS011;12743;52.262;6.172;2022-10-16T16:27:15;11.37;;;3.40;;
24585;SDS011;12743;52.262;6.172;2022-10-16T16:29:40;11.10;;;3.70;;
24585;SDS011;12743;52.262;6.172;2022-10-16T16:32:06;14.23;;;2.15;;
24585;SDS011;12743;52.262;6.172;2022-10-16T16:34:31;6.93;;;1.80;;
24585;SDS011;12743;52.262;6.172;2022-10-16T16:36:57;7.27;;;1.97;;
24585;SDS011;12743;52.262;6.172;2022-10-16T16:39:22;8.37;;;1.13;;
24585;SDS011;12743;52.262;6.172;2022-10-16T16:41:48;10.98;;;1.65;;
24585;SDS011;12743;52.262;6.172;2022-10-16T16:44:13;9.67;;;1.50;;
24585;SDS011;12743;52.262;6.172;2022-10-16T16:46:40;5.95;;;1.20;;
24585;SDS011;12743;52.262;6.172;2022-10-16T16:49:08;8.38;;;1.73;;
24585;SDS011;12743;52.262;6.172;2022-10-16T16:51:37;9.23;;;1.60;;
24585;SDS011;12743;52.262;6.172;2022-10-16T16:54:03;11.23;;;2.17;;
24585;SDS011;12743;52.262;6.172;2022-10-16T16:56:28;16.17;;;4.40;;